sensor_id;sensor_type;location;lat;lon;timestamp;P1;durP1;ratioP1;P2;durP2;ratioP2
11620;SDS011;5866;49.094;11.900;2022-08-11T00:02:23;6.20;;;5.72;;
11620;SDS011;5866;49.094;11.900;2022-08-11T00:04:53;7.47;;;6.85;;
11620;SDS011;5866;49.094;11.900;2022-08-11T00:07:23;6.00;;;5.60;;
11620;SDS011;5866;49.094;11.900;2022-08-11T00:09:51;5.43;;;5.03;;
11620;SDS011;5866;49.094;11.900;2022-08-11T00:12:20;4.43;;;3.63;;
11620;SDS011;5866;49.094;11.900;2022-08-11T00:14:54;5.35;;;4.90;;
11620;SDS011;5866;49.094;11.900;2022-08-11T00:17:27;9.35;;;4.63;;
11620;SDS011;5866;49.094;11.900;2022-08-11T00:20:00;5.75;;;5.35;;
11620;SDS011;5866;49.094;11.900;2022-08-11T00:22:41;7.53;;;6.93;;
11620;SDS011;5866;49.094;11.900;2022-08-11T00:25:11;8.57;;;7.97;;
11620;SDS011;5866;49.094;11.900;2022-08-11T00:27:40;10.13;;;9.23;;
11620;SDS011;5866;49.094;11.900;2022-08-11T00:30:09;6.90;;;6.50;;
11620;SDS011;5866;49.094;11.900;2022-08-11T00:32:40;7.63;;;7.03;;
11620;SDS011;5866;49.094;11.900;2022-08-11T00:35:10;8.20;;;7.60;;
11620;SDS011;5866;49.094;11.900;2022-08-11T00:38:01;6.57;;;6.03;;
11620;SDS011;5866;49.094;11.900;2022-08-11T00:40:33;6.38;;;5.68;;
11620;SDS011;5866;49.094;11.900;2022-08-11T00:43:11;6.38;;;5.97;;
11620;SDS011;5866;49.094;11.900;2022-08-11T00:45:54;7.38;;;6.85;;
11620;SDS011;5866;49.094;11.900;2022-08-11T00:48:42;7.30;;;6.85;;
11620;SDS011;5866;49.094;11.900;2022-08-11T00:51:19;6.07;;;5.68;;
11620;SDS011;5866;49.094;11.900;2022-08-11T00:54:42;6.32;;;5.93;;
11620;SDS011;5866;49.094;11.900;2022-08-11T00:57:37;5.53;;;5.13;;
11620;SDS011;5866;49.094;11.900;2022-08-11T01:00:22;5.07;;;4.68;;
11620;SDS011;5866;49.094;11.900;2022-08-11T01:02:59;4.35;;;4.05;;
11620;SDS011;5866;49.094;11.900;2022-08-11T01:21:07;6.32;;;5.88;;
11620;SDS011;5866;49.094;11.900;2022-08-11T01:24:13;7.60;;;7.10;;
11620;SDS011;5866;49.094;11.900;2022-08-11T01:27:09;6.10;;;5.70;;
11620;SDS011;5866;49.094;11.900;2022-08-11T01:39:11;6.20;;;5.00;;
11620;SDS011;5866;49.094;11.900;2022-08-11T01:42:13;6.55;;;6.15;;
11620;SDS011;5866;49.094;11.900;2022-08-11T01:45:25;8.00;;;7.50;;
11620;SDS011;5866;49.094;11.900;2022-08-11T01:48:04;7.78;;;7.28;;
11620;SDS011;5866;49.094;11.900;2022-08-11T01:50:55;7.80;;;7.20;;
11620;SDS011;5866;49.094;11.900;2022-08-11T01:53:46;7.38;;;6.88;;
11620;SDS011;5866;49.094;11.900;2022-08-11T01:56:25;6.63;;;6.20;;
11620;SDS011;5866;49.094;11.900;2022-08-11T01:59:01;8.77;;;8.15;;
11620;SDS011;5866;49.094;11.900;2022-08-11T02:01:38;8.35;;;7.68;;
11620;SDS011;5866;49.094;11.900;2022-08-11T02:04:17;8.52;;;8.02;;
11620;SDS011;5866;49.094;11.900;2022-08-11T02:06:58;9.13;;;8.63;;
11620;SDS011;5866;49.094;11.900;2022-08-11T02:09:52;7.97;;;7.47;;
11620;SDS011;5866;49.094;11.900;2022-08-11T02:12:32;8.10;;;7.57;;
11620;SDS011;5866;49.094;11.900;2022-08-11T02:15:19;9.98;;;9.18;;
11620;SDS011;5866;49.094;11.900;2022-08-11T02:17:56;10.68;;;9.77;;
11620;SDS011;5866;49.094;11.900;2022-08-11T02:20:33;10.23;;;9.50;;
11620;SDS011;5866;49.094;11.900;2022-08-11T02:23:23;10.45;;;9.55;;
11620;SDS011;5866;49.094;11.900;2022-08-11T02:26:34;10.40;;;9.70;;
11620;SDS011;5866;49.094;11.900;2022-08-11T02:29:10;10.55;;;9.95;;
11620;SDS011;5866;49.094;11.900;2022-08-11T02:31:52;10.63;;;10.02;;
11620;SDS011;5866;49.094;11.900;2022-08-11T02:35:00;13.48;;;12.48;;
11620;SDS011;5866;49.094;11.900;2022-08-11T02:37:37;13.55;;;12.70;;
11620;SDS011;5866;49.094;11.900;2022-08-11T02:40:16;11.20;;;10.50;;
11620;SDS011;5866;49.094;11.900;2022-08-11T02:43:03;12.32;;;11.63;;
11620;SDS011;5866;49.094;11.900;2022-08-11T02:45:39;17.65;;;16.42;;
11620;SDS011;5866;49.094;11.900;2022-08-11T02:48:24;21.20;;;19.25;;
11620;SDS011;5866;49.094;11.900;2022-08-11T02:51:23;14.27;;;13.38;;
11620;SDS011;5866;49.094;11.900;2022-08-11T02:53:57;17.35;;;16.15;;
11620;SDS011;5866;49.094;11.900;2022-08-11T02:56:36;19.60;;;18.13;;
11620;SDS011;5866;49.094;11.900;2022-08-11T02:59:16;18.52;;;17.30;;
11620;SDS011;5866;49.094;11.900;2022-08-11T03:02:09;19.13;;;18.02;;
11620;SDS011;5866;49.094;11.900;2022-08-11T03:04:45;16.58;;;15.68;;
11620;SDS011;5866;49.094;11.900;2022-08-11T03:07:22;18.52;;;17.33;;
11620;SDS011;5866;49.094;11.900;2022-08-11T03:09:57;14.65;;;13.75;;
11620;SDS011;5866;49.094;11.900;2022-08-11T03:12:38;15.40;;;14.50;;
11620;SDS011;5866;49.094;11.900;2022-08-11T03:15:31;17.45;;;16.45;;
11620;SDS011;5866;49.094;11.900;2022-08-11T03:18:30;19.50;;;18.38;;
11620;SDS011;5866;49.094;11.900;2022-08-11T03:21:05;20.23;;;18.92;;
11620;SDS011;5866;49.094;11.900;2022-08-11T03:23:38;19.80;;;18.60;;
11620;SDS011;5866;49.094;11.900;2022-08-11T03:26:14;15.30;;;14.27;;
11620;SDS011;5866;49.094;11.900;2022-08-11T03:28:50;13.93;;;13.02;;
11620;SDS011;5866;49.094;11.900;2022-08-11T03:31:29;8.90;;;8.40;;
11620;SDS011;5866;49.094;11.900;2022-08-11T03:34:02;10.27;;;9.32;;
11620;SDS011;5866;49.094;11.900;2022-08-11T03:39:45;6.18;;;5.78;;
11620;SDS011;5866;49.094;11.900;2022-08-11T03:42:24;8.55;;;7.80;;
11620;SDS011;5866;49.094;11.900;2022-08-11T03:45:00;4.85;;;4.45;;
11620;SDS011;5866;49.094;11.900;2022-08-11T03:47:38;4.68;;;4.28;;
11620;SDS011;5866;49.094;11.900;2022-08-11T03:50:25;5.18;;;4.60;;
11620;SDS011;5866;49.094;11.900;2022-08-11T03:53:05;5.78;;;5.28;;
11620;SDS011;5866;49.094;11.900;2022-08-11T03:55:50;6.40;;;5.20;;
11620;SDS011;5866;49.094;11.900;2022-08-11T03:58:41;4.90;;;4.50;;
11620;SDS011;5866;49.094;11.900;2022-08-11T04:04:55;5.72;;;5.00;;
11620;SDS011;5866;49.094;11.900;2022-08-11T04:13:56;5.43;;;5.03;;
11620;SDS011;5866;49.094;11.900;2022-08-11T04:17:01;5.22;;;4.85;;
11620;SDS011;5866;49.094;11.900;2022-08-11T04:20:01;6.90;;;6.20;;
11620;SDS011;5866;49.094;11.900;2022-08-11T04:23:10;6.03;;;5.53;;
11620;SDS011;5866;49.094;11.900;2022-08-11T04:26:29;4.82;;;4.43;;
11620;SDS011;5866;49.094;11.900;2022-08-11T04:29:13;12.32;;;11.45;;
11620;SDS011;5866;49.094;11.900;2022-08-11T04:32:27;10.63;;;10.02;;
11620;SDS011;5866;49.094;11.900;2022-08-11T04:35:15;10.70;;;9.85;;
11620;SDS011;5866;49.094;11.900;2022-08-11T04:38:08;8.90;;;8.20;;
11620;SDS011;5866;49.094;11.900;2022-08-11T04:40:53;8.50;;;7.90;;
11620;SDS011;5866;49.094;11.900;2022-08-11T04:47:06;6.22;;;5.72;;
11620;SDS011;5866;49.094;11.900;2022-08-11T04:50:28;7.05;;;6.53;;
11620;SDS011;5866;49.094;11.900;2022-08-11T04:53:44;5.80;;;5.40;;
11620;SDS011;5866;49.094;11.900;2022-08-11T04:56:40;7.53;;;6.93;;
11620;SDS011;5866;49.094;11.900;2022-08-11T04:59:42;7.57;;;6.97;;
11620;SDS011;5866;49.094;11.900;2022-08-11T05:02:52;7.22;;;6.63;;
11620;SDS011;5866;49.094;11.900;2022-08-11T05:05:45;6.65;;;6.05;;
11620;SDS011;5866;49.094;11.900;2022-08-11T05:14:29;6.75;;;6.32;;
11620;SDS011;5866;49.094;11.900;2022-08-11T05:17:22;6.65;;;6.15;;
11620;SDS011;5866;49.094;11.900;2022-08-11T05:20:14;6.28;;;5.88;;
11620;SDS011;5866;49.094;11.900;2022-08-11T05:23:03;6.70;;;6.30;;
11620;SDS011;5866;49.094;11.900;2022-08-11T05:25:51;6.03;;;5.63;;
11620;SDS011;5866;49.094;11.900;2022-08-11T05:29:00;6.25;;;5.65;;
11620;SDS011;5866;49.094;11.900;2022-08-11T05:31:50;10.25;;;6.80;;
11620;SDS011;5866;49.094;11.900;2022-08-11T05:34:43;7.07;;;6.57;;
11620;SDS011;5866;49.094;11.900;2022-08-11T05:37:22;7.03;;;6.63;;
11620;SDS011;5866;49.094;11.900;2022-08-11T05:39:58;7.32;;;6.80;;
11620;SDS011;5866;49.094;11.900;2022-08-11T05:42:52;8.10;;;7.50;;
11620;SDS011;5866;49.094;11.900;2022-08-11T05:45:40;7.53;;;7.05;;
11620;SDS011;5866;49.094;11.900;2022-08-11T05:48:31;8.25;;;7.65;;
11620;SDS011;5866;49.094;11.900;2022-08-11T05:51:17;7.75;;;7.15;;
11620;SDS011;5866;49.094;11.900;2022-08-11T05:54:06;7.68;;;7.18;;
11620;SDS011;5866;49.094;11.900;2022-08-11T05:56:56;7.10;;;6.57;;
11620;SDS011;5866;49.094;11.900;2022-08-11T05:59:26;8.25;;;7.75;;
11620;SDS011;5866;49.094;11.900;2022-08-11T06:01:59;7.18;;;6.53;;
11620;SDS011;5866;49.094;11.900;2022-08-11T06:04:28;7.95;;;7.35;;
11620;SDS011;5866;49.094;11.900;2022-08-11T06:06:56;6.82;;;6.32;;
11620;SDS011;5866;49.094;11.900;2022-08-11T06:09:27;7.55;;;6.95;;
11620;SDS011;5866;49.094;11.900;2022-08-11T06:11:58;7.55;;;7.00;;
11620;SDS011;5866;49.094;11.900;2022-08-11T06:14:28;9.10;;;8.35;;
11620;SDS011;5866;49.094;11.900;2022-08-11T06:16:59;7.53;;;7.03;;
11620;SDS011;5866;49.094;11.900;2022-08-11T06:19:32;6.97;;;6.38;;
11620;SDS011;5866;49.094;11.900;2022-08-11T06:22:02;7.03;;;6.57;;
11620;SDS011;5866;49.094;11.900;2022-08-11T06:24:31;6.28;;;5.88;;
11620;SDS011;5866;49.094;11.900;2022-08-11T06:27:02;6.00;;;5.50;;
11620;SDS011;5866;49.094;11.900;2022-08-11T06:29:45;7.07;;;6.40;;
11620;SDS011;5866;49.094;11.900;2022-08-11T06:32:23;7.18;;;6.68;;
11620;SDS011;5866;49.094;11.900;2022-08-11T06:34:54;7.30;;;6.80;;
11620;SDS011;5866;49.094;11.900;2022-08-11T06:37:33;5.68;;;5.18;;
11620;SDS011;5866;49.094;11.900;2022-08-11T06:40:10;6.90;;;6.25;;
11620;SDS011;5866;49.094;11.900;2022-08-11T06:42:49;5.85;;;5.45;;
11620;SDS011;5866;49.094;11.900;2022-08-11T06:45:23;8.40;;;7.90;;
11620;SDS011;5866;49.094;11.900;2022-08-11T06:47:54;7.95;;;7.45;;
11620;SDS011;5866;49.094;11.900;2022-08-11T06:50:26;7.55;;;7.05;;
11620;SDS011;5866;49.094;11.900;2022-08-11T06:53:14;7.50;;;7.00;;
11620;SDS011;5866;49.094;11.900;2022-08-11T06:55:44;6.22;;;5.72;;
11620;SDS011;5866;49.094;11.900;2022-08-11T06:58:34;6.43;;;5.93;;
11620;SDS011;5866;49.094;11.900;2022-08-11T07:01:28;9.60;;;5.82;;
11620;SDS011;5866;49.094;11.900;2022-08-11T07:04:04;8.05;;;7.55;;
11620;SDS011;5866;49.094;11.900;2022-08-11T07:06:38;9.02;;;8.35;;
11620;SDS011;5866;49.094;11.900;2022-08-11T07:09:42;8.93;;;6.53;;
11620;SDS011;5866;49.094;11.900;2022-08-11T07:12:47;7.47;;;6.88;;
11620;SDS011;5866;49.094;11.900;2022-08-11T07:15:58;5.55;;;5.15;;
11620;SDS011;5866;49.094;11.900;2022-08-11T07:18:38;6.78;;;6.38;;
11620;SDS011;5866;49.094;11.900;2022-08-11T07:21:26;5.90;;;5.50;;
11620;SDS011;5866;49.094;11.900;2022-08-11T07:24:29;6.40;;;5.97;;
11620;SDS011;5866;49.094;11.900;2022-08-11T07:27:29;6.30;;;5.80;;
11620;SDS011;5866;49.094;11.900;2022-08-11T07:30:20;7.57;;;7.07;;
11620;SDS011;5866;49.094;11.900;2022-08-11T07:32:50;6.05;;;5.63;;
11620;SDS011;5866;49.094;11.900;2022-08-11T07:35:21;6.07;;;5.40;;
11620;SDS011;5866;49.094;11.900;2022-08-11T07:37:56;5.82;;;5.43;;
11620;SDS011;5866;49.094;11.900;2022-08-11T07:40:27;6.22;;;5.10;;
11620;SDS011;5866;49.094;11.900;2022-08-11T07:42:56;6.65;;;6.15;;
11620;SDS011;5866;49.094;11.900;2022-08-11T07:45:25;6.45;;;5.90;;
11620;SDS011;5866;49.094;11.900;2022-08-11T07:48:13;6.55;;;6.05;;
11620;SDS011;5866;49.094;11.900;2022-08-11T07:50:59;6.97;;;6.47;;
11620;SDS011;5866;49.094;11.900;2022-08-11T07:53:45;6.32;;;5.80;;
11620;SDS011;5866;49.094;11.900;2022-08-11T07:56:34;6.30;;;5.90;;
11620;SDS011;5866;49.094;11.900;2022-08-11T07:59:21;5.85;;;5.47;;
11620;SDS011;5866;49.094;11.900;2022-08-11T08:02:26;5.38;;;4.97;;
11620;SDS011;5866;49.094;11.900;2022-08-11T08:05:13;5.57;;;5.13;;
11620;SDS011;5866;49.094;11.900;2022-08-11T08:07:59;6.10;;;5.65;;
11620;SDS011;5866;49.094;11.900;2022-08-11T08:10:45;5.97;;;5.57;;
11620;SDS011;5866;49.094;11.900;2022-08-11T08:13:31;6.22;;;5.82;;
11620;SDS011;5866;49.094;11.900;2022-08-11T08:16:18;4.93;;;4.53;;
11620;SDS011;5866;49.094;11.900;2022-08-11T08:19:04;5.22;;;4.82;;
11620;SDS011;5866;49.094;11.900;2022-08-11T08:21:34;6.28;;;5.78;;
11620;SDS011;5866;49.094;11.900;2022-08-11T08:24:01;7.43;;;5.43;;
11620;SDS011;5866;49.094;11.900;2022-08-11T08:26:30;6.13;;;5.55;;
11620;SDS011;5866;49.094;11.900;2022-08-11T08:29:17;5.75;;;5.35;;
11620;SDS011;5866;49.094;11.900;2022-08-11T08:32:09;5.13;;;4.63;;
11620;SDS011;5866;49.094;11.900;2022-08-11T08:34:38;5.75;;;5.35;;
11620;SDS011;5866;49.094;11.900;2022-08-11T08:37:08;4.72;;;4.30;;
11620;SDS011;5866;49.094;11.900;2022-08-11T08:39:56;6.28;;;5.70;;
11620;SDS011;5866;49.094;11.900;2022-08-11T08:42:26;6.35;;;5.95;;
11620;SDS011;5866;49.094;11.900;2022-08-11T08:44:57;4.22;;;3.83;;
11620;SDS011;5866;49.094;11.900;2022-08-11T08:47:28;6.43;;;5.47;;
11620;SDS011;5866;49.094;11.900;2022-08-11T08:50:09;5.20;;;4.70;;
11620;SDS011;5866;49.094;11.900;2022-08-11T08:52:46;5.53;;;5.22;;
11620;SDS011;5866;49.094;11.900;2022-08-11T08:55:20;4.55;;;4.10;;
11620;SDS011;5866;49.094;11.900;2022-08-11T08:57:49;4.75;;;4.45;;
11620;SDS011;5866;49.094;11.900;2022-08-11T09:00:18;6.03;;;5.50;;
11620;SDS011;5866;49.094;11.900;2022-08-11T09:02:49;4.88;;;4.57;;
11620;SDS011;5866;49.094;11.900;2022-08-11T09:05:18;6.95;;;6.45;;
11620;SDS011;5866;49.094;11.900;2022-08-11T09:07:48;5.47;;;5.00;;
11620;SDS011;5866;49.094;11.900;2022-08-11T09:10:22;6.30;;;5.80;;
11620;SDS011;5866;49.094;11.900;2022-08-11T09:12:51;5.75;;;5.45;;
11620;SDS011;5866;49.094;11.900;2022-08-11T09:15:20;3.97;;;3.67;;
11620;SDS011;5866;49.094;11.900;2022-08-11T09:17:50;5.72;;;5.43;;
11620;SDS011;5866;49.094;11.900;2022-08-11T09:20:21;5.15;;;4.75;;
11620;SDS011;5866;49.094;11.900;2022-08-11T09:22:55;5.28;;;4.78;;
11620;SDS011;5866;49.094;11.900;2022-08-11T09:26:02;5.30;;;4.90;;
11620;SDS011;5866;49.094;11.900;2022-08-11T09:28:56;5.55;;;5.25;;
11620;SDS011;5866;49.094;11.900;2022-08-11T09:31:26;6.75;;;6.15;;
11620;SDS011;5866;49.094;11.900;2022-08-11T09:34:04;4.50;;;4.20;;
11620;SDS011;5866;49.094;11.900;2022-08-11T09:36:32;5.47;;;5.18;;
11620;SDS011;5866;49.094;11.900;2022-08-11T09:39:19;7.25;;;6.57;;
11620;SDS011;5866;49.094;11.900;2022-08-11T09:42:04;7.18;;;6.70;;
11620;SDS011;5866;49.094;11.900;2022-08-11T09:44:41;5.72;;;5.32;;
11620;SDS011;5866;49.094;11.900;2022-08-11T09:47:16;5.75;;;5.45;;
11620;SDS011;5866;49.094;11.900;2022-08-11T09:49:48;6.07;;;5.57;;
11620;SDS011;5866;49.094;11.900;2022-08-11T09:52:18;5.75;;;4.90;;
11620;SDS011;5866;49.094;11.900;2022-08-11T09:54:48;6.28;;;5.88;;
11620;SDS011;5866;49.094;11.900;2022-08-11T09:57:18;8.65;;;6.00;;
11620;SDS011;5866;49.094;11.900;2022-08-11T10:00:06;7.22;;;6.80;;
11620;SDS011;5866;49.094;11.900;2022-08-11T10:02:39;5.60;;;5.20;;
11620;SDS011;5866;49.094;11.900;2022-08-11T10:05:10;4.95;;;4.55;;
11620;SDS011;5866;49.094;11.900;2022-08-11T10:07:59;5.78;;;5.38;;
11620;SDS011;5866;49.094;11.900;2022-08-11T10:10:30;5.20;;;4.90;;
11620;SDS011;5866;49.094;11.900;2022-08-11T10:13:04;6.70;;;6.30;;
11620;SDS011;5866;49.094;11.900;2022-08-11T10:15:54;5.47;;;4.40;;
11620;SDS011;5866;49.094;11.900;2022-08-11T10:18:40;6.32;;;5.78;;
11620;SDS011;5866;49.094;11.900;2022-08-11T10:21:16;5.03;;;4.65;;
11620;SDS011;5866;49.094;11.900;2022-08-11T10:23:53;5.88;;;5.47;;
11620;SDS011;5866;49.094;11.900;2022-08-11T10:26:41;5.82;;;5.53;;
11620;SDS011;5866;49.094;11.900;2022-08-11T10:29:19;7.07;;;6.68;;
11620;SDS011;5866;49.094;11.900;2022-08-11T10:32:17;5.93;;;5.50;;
11620;SDS011;5866;49.094;11.900;2022-08-11T10:35:23;6.55;;;6.15;;
11620;SDS011;5866;49.094;11.900;2022-08-11T10:37:52;5.28;;;4.97;;
11620;SDS011;5866;49.094;11.900;2022-08-11T10:40:34;6.30;;;5.80;;
11620;SDS011;5866;49.094;11.900;2022-08-11T10:43:06;7.50;;;6.45;;
11620;SDS011;5866;49.094;11.900;2022-08-11T10:45:40;4.97;;;4.68;;
11620;SDS011;5866;49.094;11.900;2022-08-11T10:48:28;5.07;;;4.78;;
11620;SDS011;5866;49.094;11.900;2022-08-11T10:51:01;9.23;;;5.47;;
11620;SDS011;5866;49.094;11.900;2022-08-11T10:54:03;5.57;;;5.18;;
11620;SDS011;5866;49.094;11.900;2022-08-11T10:56:49;4.57;;;4.20;;
11620;SDS011;5866;49.094;11.900;2022-08-11T10:59:35;5.78;;;5.28;;
11620;SDS011;5866;49.094;11.900;2022-08-11T11:02:04;5.78;;;5.38;;
11620;SDS011;5866;49.094;11.900;2022-08-11T11:04:36;5.10;;;4.75;;
11620;SDS011;5866;49.094;11.900;2022-08-11T11:07:17;6.03;;;5.55;;
11620;SDS011;5866;49.094;11.900;2022-08-11T11:09:49;6.45;;;5.95;;
11620;SDS011;5866;49.094;11.900;2022-08-11T11:12:24;6.35;;;5.93;;
11620;SDS011;5866;49.094;11.900;2022-08-11T11:15:16;7.63;;;7.05;;
11620;SDS011;5866;49.094;11.900;2022-08-11T11:18:04;6.90;;;6.50;;
11620;SDS011;5866;49.094;11.900;2022-08-11T11:20:38;6.90;;;6.30;;
11620;SDS011;5866;49.094;11.900;2022-08-11T11:23:13;7.13;;;6.70;;
11620;SDS011;5866;49.094;11.900;2022-08-11T11:25:56;5.63;;;5.30;;
11620;SDS011;5866;49.094;11.900;2022-08-11T11:28:47;5.38;;;4.88;;
11620;SDS011;5866;49.094;11.900;2022-08-11T11:31:30;5.70;;;5.40;;
11620;SDS011;5866;49.094;11.900;2022-08-11T11:34:11;4.07;;;3.88;;
11620;SDS011;5866;49.094;11.900;2022-08-11T11:36:47;5.47;;;5.07;;
11620;SDS011;5866;49.094;11.900;2022-08-11T11:39:17;4.57;;;4.28;;
11620;SDS011;5866;49.094;11.900;2022-08-11T11:41:47;6.40;;;6.05;;
11620;SDS011;5866;49.094;11.900;2022-08-11T11:44:15;6.97;;;6.50;;
11620;SDS011;5866;49.094;11.900;2022-08-11T11:46:44;6.20;;;5.60;;
11620;SDS011;5866;49.094;11.900;2022-08-11T11:49:13;4.88;;;4.57;;
11620;SDS011;5866;49.094;11.900;2022-08-11T11:51:49;7.18;;;6.78;;
11620;SDS011;5866;49.094;11.900;2022-08-11T11:54:18;5.72;;;5.35;;
11620;SDS011;5866;49.094;11.900;2022-08-11T11:56:48;5.43;;;5.13;;
11620;SDS011;5866;49.094;11.900;2022-08-11T11:59:18;5.35;;;5.05;;
11620;SDS011;5866;49.094;11.900;2022-08-11T12:02:06;4.55;;;4.25;;
11620;SDS011;5866;49.094;11.900;2022-08-11T12:04:38;4.72;;;4.40;;
11620;SDS011;5866;49.094;11.900;2022-08-11T12:07:08;5.88;;;5.50;;
11620;SDS011;5866;49.094;11.900;2022-08-11T12:09:54;5.18;;;4.88;;
11620;SDS011;5866;49.094;11.900;2022-08-11T12:12:24;5.50;;;4.70;;
11620;SDS011;5866;49.094;11.900;2022-08-11T12:15:10;5.82;;;5.03;;
11620;SDS011;5866;49.094;11.900;2022-08-11T12:17:39;4.75;;;3.92;;
11620;SDS011;5866;49.094;11.900;2022-08-11T12:20:07;3.80;;;3.45;;
11620;SDS011;5866;49.094;11.900;2022-08-11T12:22:55;43.47;;;26.05;;
11620;SDS011;5866;49.094;11.900;2022-08-11T12:25:41;13.30;;;10.02;;
11620;SDS011;5866;49.094;11.900;2022-08-11T12:28:45;3.90;;;3.60;;
11620;SDS011;5866;49.094;11.900;2022-08-11T12:31:13;17.02;;;14.80;;
11620;SDS011;5866;49.094;11.900;2022-08-11T12:33:42;4.30;;;4.10;;
11620;SDS011;5866;49.094;11.900;2022-08-11T12:36:12;5.38;;;3.10;;
11620;SDS011;5866;49.094;11.900;2022-08-11T12:38:42;13.23;;;11.88;;
11620;SDS011;5866;49.094;11.900;2022-08-11T12:41:16;4.88;;;4.57;;
11620;SDS011;5866;49.094;11.900;2022-08-11T12:44:03;6.45;;;5.85;;
11620;SDS011;5866;49.094;11.900;2022-08-11T12:47:04;5.03;;;4.63;;
11620;SDS011;5866;49.094;11.900;2022-08-11T12:49:35;4.45;;;4.18;;
11620;SDS011;5866;49.094;11.900;2022-08-11T12:52:26;5.75;;;5.43;;
11620;SDS011;5866;49.094;11.900;2022-08-11T12:54:59;5.70;;;5.40;;
11620;SDS011;5866;49.094;11.900;2022-08-11T12:57:37;6.93;;;6.53;;
11620;SDS011;5866;49.094;11.900;2022-08-11T13:00:25;6.45;;;5.95;;
11620;SDS011;5866;49.094;11.900;2022-08-11T13:03:12;5.60;;;5.20;;
11620;SDS011;5866;49.094;11.900;2022-08-11T13:06:00;5.70;;;5.30;;
11620;SDS011;5866;49.094;11.900;2022-08-11T13:08:30;6.57;;;6.18;;
11620;SDS011;5866;49.094;11.900;2022-08-11T13:11:02;4.03;;;3.70;;
11620;SDS011;5866;49.094;11.900;2022-08-11T13:13:48;3.63;;;3.35;;
11620;SDS011;5866;49.094;11.900;2022-08-11T13:16:23;2.70;;;2.50;;
11620;SDS011;5866;49.094;11.900;2022-08-11T13:18:52;4.10;;;3.90;;
11620;SDS011;5866;49.094;11.900;2022-08-11T13:21:22;4.22;;;3.92;;
11620;SDS011;5866;49.094;11.900;2022-08-11T13:23:51;4.85;;;4.55;;
11620;SDS011;5866;49.094;11.900;2022-08-11T13:26:28;4.60;;;4.40;;
11620;SDS011;5866;49.094;11.900;2022-08-11T13:29:14;5.63;;;5.22;;
11620;SDS011;5866;49.094;11.900;2022-08-11T13:31:44;4.10;;;3.90;;
11620;SDS011;5866;49.094;11.900;2022-08-11T13:34:12;4.00;;;3.80;;
11620;SDS011;5866;49.094;11.900;2022-08-11T13:36:42;4.30;;;4.07;;
11620;SDS011;5866;49.094;11.900;2022-08-11T13:39:12;3.88;;;2.78;;
11620;SDS011;5866;49.094;11.900;2022-08-11T13:41:41;4.03;;;3.83;;
11620;SDS011;5866;49.094;11.900;2022-08-11T13:44:10;4.95;;;4.65;;
11620;SDS011;5866;49.094;11.900;2022-08-11T13:46:48;5.03;;;4.72;;
11620;SDS011;5866;49.094;11.900;2022-08-11T13:49:18;4.40;;;4.05;;
11620;SDS011;5866;49.094;11.900;2022-08-11T13:51:49;3.72;;;3.40;;
11620;SDS011;5866;49.094;11.900;2022-08-11T13:54:18;3.63;;;3.08;;
11620;SDS011;5866;49.094;11.900;2022-08-11T13:56:49;5.47;;;5.10;;
11620;SDS011;5866;49.094;11.900;2022-08-11T13:59:19;4.80;;;4.50;;
11620;SDS011;5866;49.094;11.900;2022-08-11T14:01:56;5.85;;;5.55;;
11620;SDS011;5866;49.094;11.900;2022-08-11T14:04:49;5.05;;;4.75;;
11620;SDS011;5866;49.094;11.900;2022-08-11T14:07:23;4.38;;;3.97;;
11620;SDS011;5866;49.094;11.900;2022-08-11T14:09:54;5.65;;;5.15;;
11620;SDS011;5866;49.094;11.900;2022-08-11T14:12:24;3.25;;;3.03;;
11620;SDS011;5866;49.094;11.900;2022-08-11T14:15:13;4.45;;;3.65;;
11620;SDS011;5866;49.094;11.900;2022-08-11T14:17:45;3.75;;;3.28;;
11620;SDS011;5866;49.094;11.900;2022-08-11T14:20:18;3.85;;;3.65;;
11620;SDS011;5866;49.094;11.900;2022-08-11T14:23:07;5.03;;;4.63;;
11620;SDS011;5866;49.094;11.900;2022-08-11T14:25:38;2.95;;;2.75;;
11620;SDS011;5866;49.094;11.900;2022-08-11T14:28:28;3.90;;;3.70;;
11620;SDS011;5866;49.094;11.900;2022-08-11T14:31:05;4.60;;;4.30;;
11620;SDS011;5866;49.094;11.900;2022-08-11T14:33:34;4.47;;;4.15;;
11620;SDS011;5866;49.094;11.900;2022-08-11T14:36:24;4.45;;;4.25;;
11620;SDS011;5866;49.094;11.900;2022-08-11T14:38:54;3.28;;;3.08;;
11620;SDS011;5866;49.094;11.900;2022-08-11T14:41:22;6.60;;;6.22;;
11620;SDS011;5866;49.094;11.900;2022-08-11T14:44:29;3.80;;;3.60;;
11620;SDS011;5866;49.094;11.900;2022-08-11T14:47:15;4.90;;;4.47;;
11620;SDS011;5866;49.094;11.900;2022-08-11T14:49:50;4.93;;;4.63;;
11620;SDS011;5866;49.094;11.900;2022-08-11T14:52:35;5.53;;;5.13;;
11620;SDS011;5866;49.094;11.900;2022-08-11T14:55:06;4.65;;;4.35;;
11620;SDS011;5866;49.094;11.900;2022-08-11T14:57:52;3.90;;;3.60;;
11620;SDS011;5866;49.094;11.900;2022-08-11T15:00:22;6.40;;;5.95;;
11620;SDS011;5866;49.094;11.900;2022-08-11T15:02:51;5.07;;;4.72;;
11620;SDS011;5866;49.094;11.900;2022-08-11T15:05:44;5.60;;;5.30;;
11620;SDS011;5866;49.094;11.900;2022-08-11T15:08:24;4.03;;;3.83;;
11620;SDS011;5866;49.094;11.900;2022-08-11T15:11:14;4.18;;;3.88;;
11620;SDS011;5866;49.094;11.900;2022-08-11T15:14:02;6.03;;;5.72;;
11620;SDS011;5866;49.094;11.900;2022-08-11T15:16:32;7.32;;;6.93;;
11620;SDS011;5866;49.094;11.900;2022-08-11T15:19:18;5.38;;;4.97;;
11620;SDS011;5866;49.094;11.900;2022-08-11T15:21:47;6.60;;;6.10;;
11620;SDS011;5866;49.094;11.900;2022-08-11T15:24:33;4.70;;;4.18;;
11620;SDS011;5866;49.094;11.900;2022-08-11T15:27:04;3.35;;;3.15;;
11620;SDS011;5866;49.094;11.900;2022-08-11T15:29:53;8.05;;;7.55;;
11620;SDS011;5866;49.094;11.900;2022-08-11T15:32:58;6.93;;;6.50;;
11620;SDS011;5866;49.094;11.900;2022-08-11T15:35:48;5.47;;;5.15;;
11620;SDS011;5866;49.094;11.900;2022-08-11T15:38:34;6.93;;;6.53;;
11620;SDS011;5866;49.094;11.900;2022-08-11T15:41:08;8.07;;;7.47;;
11620;SDS011;5866;49.094;11.900;2022-08-11T15:43:58;7.78;;;7.28;;
11620;SDS011;5866;49.094;11.900;2022-08-11T15:46:46;6.20;;;5.80;;
11620;SDS011;5866;49.094;11.900;2022-08-11T15:49:21;6.50;;;5.95;;
11620;SDS011;5866;49.094;11.900;2022-08-11T15:52:17;8.10;;;7.40;;
11620;SDS011;5866;49.094;11.900;2022-08-11T15:54:48;5.07;;;4.75;;
11620;SDS011;5866;49.094;11.900;2022-08-11T15:57:17;5.80;;;5.50;;
11620;SDS011;5866;49.094;11.900;2022-08-11T16:00:07;6.15;;;5.75;;
11620;SDS011;5866;49.094;11.900;2022-08-11T16:02:53;5.00;;;4.70;;
11620;SDS011;5866;49.094;11.900;2022-08-11T16:05:42;8.15;;;7.57;;
11620;SDS011;5866;49.094;11.900;2022-08-11T16:08:18;5.03;;;4.72;;
11620;SDS011;5866;49.094;11.900;2022-08-11T16:10:59;4.15;;;3.95;;
11620;SDS011;5866;49.094;11.900;2022-08-11T16:13:32;7.20;;;6.78;;
11620;SDS011;5866;49.094;11.900;2022-08-11T16:16:22;5.40;;;5.00;;
11620;SDS011;5866;49.094;11.900;2022-08-11T16:18:50;5.13;;;4.85;;
11620;SDS011;5866;49.094;11.900;2022-08-11T16:21:22;4.88;;;4.57;;
11620;SDS011;5866;49.094;11.900;2022-08-11T16:24:02;5.55;;;5.25;;
11620;SDS011;5866;49.094;11.900;2022-08-11T16:26:32;7.45;;;6.85;;
11620;SDS011;5866;49.094;11.900;2022-08-11T16:29:24;7.75;;;7.25;;
11620;SDS011;5866;49.094;11.900;2022-08-11T16:31:54;5.43;;;5.00;;
11620;SDS011;5866;49.094;11.900;2022-08-11T16:34:40;6.15;;;5.80;;
11620;SDS011;5866;49.094;11.900;2022-08-11T16:37:27;6.75;;;6.35;;
11620;SDS011;5866;49.094;11.900;2022-08-11T16:40:14;6.00;;;5.70;;
11620;SDS011;5866;49.094;11.900;2022-08-11T16:42:43;6.32;;;5.93;;
11620;SDS011;5866;49.094;11.900;2022-08-11T16:45:36;4.63;;;4.32;;
11620;SDS011;5866;49.094;11.900;2022-08-11T16:48:26;7.45;;;7.05;;
11620;SDS011;5866;49.094;11.900;2022-08-11T16:51:04;7.40;;;6.90;;
11620;SDS011;5866;49.094;11.900;2022-08-11T16:53:32;8.60;;;7.93;;
11620;SDS011;5866;49.094;11.900;2022-08-11T16:56:21;7.68;;;7.20;;